Jake Shearer — WDI8655 — position and weather

sailwx.info

Track history (hours):
 
Tides and Currents Weather Stations Pressure Air Temp Water Temp Dewpoint Dewpoint Depression Visibility Wind Speed Wind Dir Waves Ship Positions

Jake Shearer

Owner: Harley Marine Services, Inc, Seattle, WA. More information available from US FCC via Universal Licensing System and Coast Guard Vessel Documentation Center.

Last reported at 2018-Aug-14 01:19 UTC. Time now 2018-Aug-14 19:28 UTC.
Position N 48°52' W 122°46'.

Length 34 m; draft 4.1 m.

Type: Ship. MMSI: 367740790.

Date/timePositionNaut miles runAvg speedWind from/ knotsBaromVisibWave heightAir tempDewpointWater temp
2018-Aug-14 01:19N 48°52' W 122°46'1 4.0
2018-Aug-14 01:00N 48°51' W 122°47'610.9
2018-Aug-14 00:27N 48°45' W 122°45'511.6
2018-Aug-14 00:00N 48°40' W 122°41'5 9.8
2018-Aug-13 23:29N 48°36' W 122°37'2 3.6
2018-Aug-13 23:00N 48°34' W 122°36'0 0.0
2018-Aug-13 22:30N 48°34' W 122°36'0 0.0
2018-Aug-13 22:00N 48°34' W 122°36'0 0.0
2018-Aug-13 21:30N 48°34' W 122°36'0 0.0
2018-Aug-13 21:00N 48°34' W 122°36'0 0.0
2018-Aug-13 20:27N 48°34' W 122°36'0 0.1
2018-Aug-13 20:00N 48°34' W 122°36'0 0.0
2018-Aug-13 19:21N 48°34' W 122°36'0 0.0
2018-Aug-13 19:00N 48°34' W 122°36'0 0.1
2018-Aug-13 18:30N 48°34' W 122°36'0 0.0
2018-Aug-13 18:00N 48°34' W 122°36'0 0.1
2018-Aug-13 17:15N 48°34' W 122°36'0 0.0
2018-Aug-13 16:51N 48°34' W 122°36'0 0.0
2018-Aug-13 16:24N 48°34' W 122°36'0 0.1
2018-Aug-13 16:00N 48°34' W 122°36'0 0.0
2018-Aug-13 15:09N 48°34' W 122°36'0 0.0
2018-Aug-13 14:51N 48°34' W 122°36'0 0.0
2018-Aug-13 14:30N 48°34' W 122°36'0 0.0
2018-Aug-13 14:00N 48°34' W 122°36'0 0.1
2018-Aug-13 13:30N 48°34' W 122°36'0 0.1
2018-Aug-13 12:57N 48°34' W 122°36'0 0.0
2018-Aug-13 12:24N 48°34' W 122°36'0 0.0
2018-Aug-13 12:00N 48°34' W 122°36'0 0.1
2018-Aug-13 11:30N 48°34' W 122°36'0 0.0
2018-Aug-13 11:00N 48°34' W 122°36'0 0.0
2018-Aug-13 09:30N 48°34' W 122°36'0 0.1
2018-Aug-13 08:54N 48°34' W 122°36'0 0.0
2018-Aug-13 08:30N 48°34' W 122°36'0 0.1
2018-Aug-13 07:54N 48°34' W 122°36'0 0.2
2018-Aug-13 07:27N 48°34' W 122°36'0 0.1
2018-Aug-13 07:00N 48°34' W 122°36'0 0.0
2018-Aug-13 06:27N 48°34' W 122°36'0 0.1
2018-Aug-13 05:36N 48°34' W 122°36'0 0.4
2018-Aug-13 05:30N 48°34' W 122°36'0 0.2
2018-Aug-13 05:00N 48°34' W 122°36'0 0.1
2018-Aug-13 04:30N 48°34' W 122°36'0 0.0
2018-Aug-13 03:54N 48°34' W 122°36'0 0.0
2018-Aug-13 02:21N 48°34' W 122°36'0 0.0
2018-Aug-13 01:54N 48°34' W 122°36'0 0.0
2018-Aug-13 01:15N 48°34' W 122°36'0 0.1
2018-Aug-13 00:57N 48°34' W 122°36'0 0.1
2018-Aug-13 00:21N 48°34' W 122°36'0 0.0
2018-Aug-13 00:00N 48°34' W 122°36'0 0.0
2018-Aug-12 23:27N 48°34' W 122°36'0 0.1
2018-Aug-12 23:00N 48°34' W 122°36'0 0.2
2018-Aug-12 22:30N 48°34' W 122°36'0 0.1
2018-Aug-12 21:51N 48°34' W 122°36'0 0.2
2018-Aug-12 21:15N 48°34' W 122°36'0 0.0
2018-Aug-12 20:57N 48°34' W 122°36'0 0.1
2018-Aug-12 20:21N 48°34' W 122°36'0 0.0
2018-Aug-12 20:00N 48°34' W 122°36'0 0.0
2018-Aug-12 18:57N 48°34' W 122°36'0 0.0
2018-Aug-12 18:27N 48°34' W 122°36'0 0.0
2018-Aug-12 18:00N 48°34' W 122°36'0 0.0
2018-Aug-12 17:27N 48°34' W 122°36'0 0.1
2018-Aug-12 17:00N 48°34' W 122°36'0 0.1
2018-Aug-12 16:27N 48°34' W 122°36'0 0.1
2018-Aug-12 16:00N 48°34' W 122°36'0 0.1
2018-Aug-12 14:48N 48°34' W 122°36'0 0.0
2018-Aug-12 14:24N 48°34' W 122°36'0 0.0
2018-Aug-12 13:12N 48°34' W 122°36'0 0.2
2018-Aug-12 13:00N 48°34' W 122°36'0 0.1
2018-Aug-12 12:30N 48°34' W 122°36'0 0.0
2018-Aug-12 12:00N 48°34' W 122°36'0 0.0
2018-Aug-12 11:30N 48°34' W 122°36'0 0.1
2018-Aug-12 11:00N 48°34' W 122°36'0 0.1
2018-Aug-12 10:30N 48°34' W 122°36'0 0.1
2018-Aug-12 10:00N 48°34' W 122°36'0 0.1
2018-Aug-12 09:20N 48°34' W 122°36'1 2.0
2018-Aug-12 08:45N 48°35' W 122°37'2 7.4
2018-Aug-12 08:30N 48°35' W 122°40'4 8.0
2018-Aug-12 07:58N 48°31' W 122°42'4 7.9
2018-Aug-12 07:28N 48°28' W 122°44'4 7.8
2018-Aug-12 07:00N 48°25' W 122°47'4 8.0
2018-Aug-12 06:30N 48°22' W 122°52'5 8.8
2018-Aug-12 05:59N 48°20' W 122°58'39 8.2
2018-Aug-12 01:16N 48°12' W 123°55'5 9.6
2018-Aug-12 00:47N 48°14' W 124°01'3 9.9
2018-Aug-12 00:30N 48°15' W 124°05'5 9.8
2018-Aug-12 00:00N 48°18' W 124°12'5 9.8
2018-Aug-11 23:30N 48°20' W 124°19'4 8.9
2018-Aug-11 23:00N 48°21' W 124°25'4 8.1
2018-Aug-11 22:30N 48°23' W 124°30'4 8.1
2018-Aug-11 22:00N 48°25' W 124°36'4 7.8
2018-Aug-11 21:30N 48°26' W 124°41'4 7.8
2018-Aug-11 20:59N 48°28' W 124°47'4 8.0
2018-Aug-11 20:30N 48°28' W 124°53'4 8.2
2018-Aug-11 20:00N 48°25' W 124°57'4 8.1
2018-Aug-11 19:29N 48°21' W 124°60'75 7.8
2018-Aug-11 09:58N 47°06' W 124°58'4 8.4
2018-Aug-11 09:30N 47°03' W 124°56'4 8.4
2018-Aug-11 09:00N 46°59' W 124°54'4 8.5
2018-Aug-11 08:30N 46°55' W 124°52'4 8.8
2018-Aug-11 08:00N 46°51' W 124°49'4 9.0
2018-Aug-11 07:30N 46°46' W 124°47'5 9.1
2018-Aug-11 06:59N 46°42' W 124°45'4 8.8
2018-Aug-11 06:30N 46°38' W 124°44'4 8.6
2018-Aug-11 05:59N 46°34' W 124°40'4 8.6
2018-Aug-11 05:30N 46°30' W 124°37'4 8.8
2018-Aug-11 05:00N 46°27' W 124°34'4 8.9
2018-Aug-11 04:31N 46°23' W 124°30'5 8.9
2018-Aug-11 04:00N 46°20' W 124°26'5 9.3
2018-Aug-11 03:30N 46°16' W 124°21'5 9.7
2018-Aug-11 03:00N 46°13' W 124°16'4 8.7
2018-Aug-11 02:30N 46°13' W 124°09'6 9.3
2018-Aug-11 01:55N 46°15' W 124°02'410.6
2018-Aug-11 01:30N 46°13' W 123°57'510.2
2018-Aug-11 00:59N 46°12' W 123°50'5 9.8
2018-Aug-11 00:30N 46°14' W 123°44'5 9.2
2018-Aug-11 00:00N 46°16' W 123°38'8 8.4
2018-Aug-10 23:03N 46°14' W 123°26'0 9.3
2018-Aug-10 23:00N 46°14' W 123°26'7 7.3
2018-Aug-10 22:02N 46°09' W 123°20'0 9.0
2018-Aug-10 22:01N 46°09' W 123°19'4 8.3
2018-Aug-10 21:30N 46°10' W 123°14'4 8.1
2018-Aug-10 21:00N 46°11' W 123°08'4 8.3
2018-Aug-10 20:30N 46°09' W 123°03'4 8.6
2018-Aug-10 20:00N 46°06' W 122°58'5 8.4
2018-Aug-10 19:25N 46°03' W 122°53'6 8.9
2018-Aug-10 18:43N 45°58' W 122°49'2 9.2
2018-Aug-10 18:30N 45°56' W 122°48'6 9.5
2018-Aug-10 17:51N 45°49' W 122°48'4 9.8
2018-Aug-10 17:29N 45°46' W 122°46'510.2
2018-Aug-10 16:57N 45°41' W 122°46'3 7.2
2018-Aug-10 16:30N 45°38' W 122°47'2 4.0
2018-Aug-10 16:00N 45°36' W 122°47'0 0.0
2018-Aug-10 15:30N 45°36' W 122°47'0 0.0
2018-Aug-10 14:51N 45°36' W 122°47'0 0.0
2018-Aug-10 14:30N 45°36' W 122°47'0 0.0
2018-Aug-10 14:00N 45°36' W 122°47'0 0.0
2018-Aug-10 13:15N 45°36' W 122°47'0 0.0
2018-Aug-10 12:57N 45°36' W 122°47'0 0.0
2018-Aug-10 12:18N 45°36' W 122°47'0 0.0
2018-Aug-10 11:57N 45°36' W 122°47'0 0.0
2018-Aug-10 11:27N 45°36' W 122°47'0 0.0
2018-Aug-10 11:00N 45°36' W 122°47'0 0.0
2018-Aug-10 10:30N 45°36' W 122°47'0 0.0
2018-Aug-10 09:57N 45°36' W 122°47'0 0.0
2018-Aug-10 09:06N 45°36' W 122°47'0 0.0
2018-Aug-10 09:00N 45°36' W 122°47'0 0.0
2018-Aug-10 08:30N 45°36' W 122°47'0 0.0
2018-Aug-10 08:00N 45°36' W 122°47'0 0.0
2018-Aug-10 07:06N 45°36' W 122°47'0 0.0
2018-Aug-10 06:54N 45°36' W 122°47'0 0.0
2018-Aug-10 06:27N 45°36' W 122°47'0 0.0
2018-Aug-10 05:54N 45°36' W 122°47'0 0.0
2018-Aug-10 05:09N 45°36' W 122°47'0 0.0
2018-Aug-10 05:00N 45°36' W 122°47'0 0.0
2018-Aug-10 04:30N 45°36' W 122°47'0 0.0
2018-Aug-10 03:51N 45°36' W 122°47'0 0.0
2018-Aug-10 03:24N 45°36' W 122°47'0 0.0
2018-Aug-10 02:48N 45°36' W 122°47'0 0.0
2018-Aug-10 02:30N 45°36' W 122°47'0 0.0
2018-Aug-10 02:00N 45°36' W 122°47'0 0.0
2018-Aug-10 01:30N 45°36' W 122°47'0 0.0
2018-Aug-10 00:54N 45°36' W 122°47'0 0.0
2018-Aug-10 00:30N 45°36' W 122°47'0 0.0
2018-Aug-09 23:51N 45°36' W 122°47'0 0.0
2018-Aug-09 23:30N 45°36' W 122°47'0 0.0
2018-Aug-09 22:57N 45°36' W 122°47'0 0.0
2018-Aug-09 22:30N 45°36' W 122°47'0 0.0
2018-Aug-09 21:54N 45°36' W 122°47'0 0.0
2018-Aug-09 21:21N 45°36' W 122°47'0 0.0
2018-Aug-09 20:57N 45°36' W 122°47'0 0.0
2018-Aug-09 20:15N 45°36' W 122°47'0 0.0
2018-Aug-09 19:57N 45°36' W 122°47'0 0.6
2018-Aug-09 19:30N 45°35' W 122°46'1 1.7
2018-Aug-09 19:00N 45°35' W 122°46'0 0.0
2018-Aug-09 18:30N 45°35' W 122°46'0 0.0
2018-Aug-09 17:48N 45°35' W 122°46'0 0.0
2018-Aug-09 17:09N 45°35' W 122°46'0 0.0
2018-Aug-09 16:51N 45°35' W 122°46'0 0.0
2018-Aug-09 16:30N 45°35' W 122°46'0 0.0
2018-Aug-09 16:00N 45°35' W 122°46'0 0.0
2018-Aug-09 15:21N 45°35' W 122°46'0 0.0
2018-Aug-09 14:42N 45°35' W 122°46'0 0.0
2018-Aug-09 14:06N 45°35' W 122°46'0 0.0
2018-Aug-09 13:42N 45°35' W 122°46'0 0.0
2018-Aug-09 13:27N 45°35' W 122°46'0 0.0
2018-Aug-09 13:00N 45°35' W 122°46'0 0.0
2018-Aug-09 12:24N 45°35' W 122°46'0 0.0
2018-Aug-09 12:00N 45°35' W 122°46'0 0.0
2018-Aug-09 11:24N 45°35' W 122°46'0 0.0
2018-Aug-09 10:54N 45°35' W 122°46'0 0.0
2018-Aug-09 10:27N 45°35' W 122°46'0 0.0
2018-Aug-09 09:48N 45°35' W 122°46'0 0.0
2018-Aug-09 09:30N 45°35' W 122°46'0 0.0
2018-Aug-09 09:00N 45°35' W 122°46'0 0.0
2018-Aug-09 08:24N 45°35' W 122°46'0 0.0
2018-Aug-09 07:57N 45°35' W 122°46'0 0.0
2018-Aug-09 07:27N 45°35' W 122°46'0 0.0
2018-Aug-09 06:57N 45°35' W 122°46'0 0.0
2018-Aug-09 06:30N 45°35' W 122°46'0 0.0
2018-Aug-09 04:24N 45°35' W 122°46'0 0.0
2018-Aug-09 04:00N 45°35' W 122°46'0 0.0
2018-Aug-09 03:30N 45°35' W 122°46'0 0.0
2018-Aug-09 03:00N 45°35' W 122°46'0 0.0
2018-Aug-09 02:15N 45°35' W 122°46'0 0.0
2018-Aug-09 01:45N 45°35' W 122°46'0 0.0
2018-Aug-09 01:30N 45°35' W 122°46'0 0.0
2018-Aug-09 00:51N 45°35' W 122°46'0 0.0
2018-Aug-09 00:27N 45°35' W 122°46'0 0.0
2018-Aug-09 00:00N 45°35' W 122°46'0 0.0
2018-Aug-08 22:42N 45°35' W 122°46'0 0.0
2018-Aug-08 22:24N 45°35' W 122°46'0 0.0
2018-Aug-08 21:54N 45°35' W 122°46'0 0.0
2018-Aug-08 21:30N 45°35' W 122°46'0 0.0
2018-Aug-08 20:57N 45°35' W 122°46'0 0.0
2018-Aug-08 20:18N 45°35' W 122°46'0 0.0
2018-Aug-08 19:57N 45°35' W 122°46'0 0.0
2018-Aug-08 19:00N 45°35' W 122°46'0 0.0
2018-Aug-08 18:03N 45°35' W 122°46'0 0.0
2018-Aug-08 17:54N 45°35' W 122°46'0 0.0
2018-Aug-08 17:24N 45°35' W 122°46'0 0.0
2018-Aug-08 15:54N 45°35' W 122°46'0 0.0
2018-Aug-08 15:30N 45°35' W 122°46'0 0.0
2018-Aug-08 15:00N 45°35' W 122°46'0 0.0
2018-Aug-08 14:06N 45°35' W 122°46'0 0.0
2018-Aug-08 13:57N 45°35' W 122°46'0 0.0
2018-Aug-08 13:09N 45°35' W 122°46'0 0.0
2018-Aug-08 12:48N 45°35' W 122°46'0 0.0
2018-Aug-08 12:18N 45°35' W 122°46'0 0.0
2018-Aug-08 11:45N 45°35' W 122°46'0 0.0
2018-Aug-08 11:30N 45°35' W 122°46'0 0.0
2018-Aug-08 10:57N 45°35' W 122°46'0 0.0
2018-Aug-08 10:15N 45°35' W 122°46'0 0.0
2018-Aug-08 10:00N 45°35' W 122°46'0 0.0
2018-Aug-08 09:24N 45°35' W 122°46'0 0.0
2018-Aug-08 08:57N 45°35' W 122°46'0 0.0
2018-Aug-08 08:24N 45°35' W 122°46'0 0.0
2018-Aug-08 08:00N 45°35' W 122°46'0 0.0
2018-Aug-08 07:27N 45°35' W 122°46'0 0.0
2018-Aug-08 06:57N 45°35' W 122°46'0 0.0
2018-Aug-08 06:27N 45°35' W 122°46'0 0.0
2018-Aug-08 05:18N 45°35' W 122°46'0 0.0
2018-Aug-08 04:57N 45°35' W 122°46'0 0.0
2018-Aug-08 04:30N 45°35' W 122°46'0 0.0
2018-Aug-08 03:48N 45°35' W 122°46'0 0.0
2018-Aug-08 03:24N 45°35' W 122°46'0 0.0
2018-Aug-08 03:00N 45°35' W 122°46'0 0.0
2018-Aug-08 01:51N 45°35' W 122°46'0 0.0
2018-Aug-08 01:09N 45°35' W 122°46'0 0.0
2018-Aug-08 00:57N 45°35' W 122°46'0 0.0
2018-Aug-08 00:21N 45°35' W 122°46'0 0.0
2018-Aug-07 23:39N 45°35' W 122°46'0 0.0
2018-Aug-07 23:24N 45°35' W 122°46'0 0.0
2018-Aug-07 22:36N 45°35' W 122°46'0 0.0
2018-Aug-07 22:24N 45°35' W 122°46'0 0.0
2018-Aug-07 21:54N 45°35' W 122°46'0 0.0
2018-Aug-07 21:27N 45°35' W 122°46'0 0.0
2018-Aug-07 20:39N 45°35' W 122°46'0 0.0
2018-Aug-07 20:15N 45°35' W 122°46'0 0.0
2018-Aug-07 19:48N 45°35' W 122°46'0 0.0
2018-Aug-07 19:30N 45°35' W 122°46'0 0.0
2018-Aug-07 19:00N 45°35' W 122°46'0 0.0
2018-Aug-07 17:44N 45°35' W 122°46'0 0.0
2018-Aug-07 17:30N 45°35' W 122°46'0 0.0
2018-Aug-07 16:48N 45°35' W 122°46'0 0.0
2018-Aug-07 16:30N 45°35' W 122°46'0 0.0
2018-Aug-07 15:39N 45°35' W 122°46'0 0.0
2018-Aug-07 14:30N 45°35' W 122°46'0 0.0
2018-Aug-07 13:36N 45°35' W 122°46'0 0.0
2018-Aug-07 13:23N 45°35' W 122°46'0 0.0
2018-Aug-07 12:57N 45°35' W 122°46'0 0.0
2018-Aug-07 12:18N 45°35' W 122°46'0 0.0
2018-Aug-07 11:54N 45°35' W 122°46'0 0.0
2018-Aug-07 11:24N 45°35' W 122°46'0 0.0
2018-Aug-07 10:51N 45°35' W 122°46'0 0.0
2018-Aug-07 10:29N 45°35' W 122°46'0 0.0
2018-Aug-07 10:00N 45°35' W 122°46'0 0.0
2018-Aug-07 09:24N 45°35' W 122°46'0 0.0
2018-Aug-07 08:59N 45°35' W 122°46'0 0.0
2018-Aug-07 08:27N 45°35' W 122°46'0 0.0
2018-Aug-07 08:00N 45°35' W 122°46'0 0.0
2018-Aug-07 07:24N 45°35' W 122°46'0 0.0
2018-Aug-07 06:57N 45°35' W 122°46'0 0.0
2018-Aug-07 06:30N 45°35' W 122°46'0 0.0
2018-Aug-07 06:00N 45°35' W 122°46'0 0.0
2018-Aug-07 05:30N 45°35' W 122°46'0 0.0
2018-Aug-07 04:36N 45°35' W 122°46'0 0.0
2018-Aug-07 04:30N 45°35' W 122°46'0 0.0
2018-Aug-07 03:59N 45°35' W 122°46'0 0.0
2018-Aug-07 03:23N 45°35' W 122°46'0 0.0
2018-Aug-07 02:48N 45°35' W 122°46'0 0.0
2018-Aug-07 02:30N 45°35' W 122°46'0 0.0
2018-Aug-07 02:00N 45°35' W 122°46'0 0.0
2018-Aug-07 01:24N 45°35' W 122°46'0 0.0
2018-Aug-07 00:48N 45°35' W 122°46'0 0.0
2018-Aug-07 00:30N 45°35' W 122°46'0 0.0
2018-Aug-06 23:59N 45°35' W 122°46'0 0.0
2018-Aug-06 23:02N 45°35' W 122°46'0 0.0
2018-Aug-06 21:59N 45°35' W 122°46'0 0.0
2018-Aug-06 21:26N 45°35' W 122°46'0 0.0
2018-Aug-06 20:38N 45°35' W 122°46'0 0.0
2018-Aug-06 20:26N 45°35' W 122°46'0 0.0
2018-Aug-06 19:59N 45°35' W 122°46'0 0.0
2018-Aug-06 18:56N 45°35' W 122°46'0 0.0
2018-Aug-06 18:30N 45°35' W 122°46'0 0.0
2018-Aug-06 18:00N 45°35' W 122°46'0 0.0
2018-Aug-06 17:29N 45°35' W 122°46'0 0.0
2018-Aug-06 16:17N 45°35' W 122°46'0 0.0
2018-Aug-06 15:48N 45°35' W 122°46'0 0.0
2018-Aug-06 14:50N 45°35' W 122°46'0 0.0
2018-Aug-06 14:23N 45°35' W 122°46'0 0.0
2018-Aug-06 13:54N 45°35' W 122°46'0 0.0
2018-Aug-06 13:29N 45°35' W 122°46'0 0.0
2018-Aug-06 12:59N 45°35' W 122°46'0 0.0
2018-Aug-06 12:29N 45°35' W 122°46'0 0.0
2018-Aug-06 11:56N 45°35' W 122°46'0 0.0
2018-Aug-06 11:23N 45°35' W 122°46'0 0.0
2018-Aug-06 10:59N 45°35' W 122°46'0 0.0
2018-Aug-06 10:20N 45°35' W 122°46'0 0.0
2018-Aug-06 09:50N 45°35' W 122°46'0 0.0
2018-Aug-06 09:29N 45°35' W 122°46'0 0.0
2018-Aug-06 08:48N 45°35' W 122°46'0 0.0
2018-Aug-06 08:29N 45°35' W 122°46'0 0.0
2018-Aug-06 07:59N 45°35' W 122°46'0 0.0
2018-Aug-06 07:23N 45°35' W 122°46'0 0.0
2018-Aug-06 06:59N 45°35' W 122°46'0 0.0
2018-Aug-06 06:26N 45°35' W 122°46'0 0.0
2018-Aug-06 05:41N 45°35' W 122°46'0 0.0
2018-Aug-06 05:14N 45°35' W 122°46'0 0.0
2018-Aug-06 04:29N 45°35' W 122°46'0 0.0
2018-Aug-06 03:56N 45°35' W 122°46'0 0.0
2018-Aug-06 03:08N 45°35' W 122°46'0 0.0
2018-Aug-06 02:59N 45°35' W 122°46'0 0.0
2018-Aug-06 02:08N 45°35' W 122°46'0 0.0
2018-Aug-06 01:11N 45°35' W 122°46'0 0.0
2018-Aug-06 00:26N 45°35' W 122°46'0 0.0
2018-Aug-05 23:32N 45°35' W 122°46'0 0.0
2018-Aug-05 22:47N 45°35' W 122°46'0 0.0
2018-Aug-05 22:29N 45°35' W 122°46'0 0.0
2018-Aug-05 21:47N 45°35' W 122°46'0 0.0
2018-Aug-05 21:11N 45°35' W 122°46'0 0.0
2018-Aug-05 20:59N 45°35' W 122°46'0 0.0
2018-Aug-05 20:17N 45°35' W 122°46'0 0.0
2018-Aug-05 19:53N 45°35' W 122°46'0 0.0
2018-Aug-05 19:26N 45°35' W 122°46'0 0.0
2018-Aug-05 18:59N 45°35' W 122°46'0 0.0
2018-Aug-05 18:29N 45°35' W 122°46'0 0.0
2018-Aug-05 17:56N 45°35' W 122°46'0 0.0
2018-Aug-05 17:20N 45°35' W 122°46'0 0.0
2018-Aug-05 16:17N 45°35' W 122°46'0 0.0
2018-Aug-05 15:56N 45°35' W 122°46'0 0.0
2018-Aug-05 15:17N 45°35' W 122°46'0 0.0
2018-Aug-05 14:53N 45°35' W 122°46'0 0.0
2018-Aug-05 14:17N 45°35' W 122°46'0 0.0
2018-Aug-05 13:20N 45°35' W 122°46'0 0.0
2018-Aug-05 12:53N 45°35' W 122°46'0 0.0
2018-Aug-05 12:23N 45°35' W 122°46'0 0.0
2018-Aug-05 11:59N 45°35' W 122°46'0 0.0
2018-Aug-05 11:17N 45°35' W 122°46'0 0.0
2018-Aug-05 10:56N 45°35' W 122°46'0 0.0
2018-Aug-05 10:29N 45°35' W 122°46'0 0.0
2018-Aug-05 09:11N 45°35' W 122°46'0 0.0
2018-Aug-05 08:59N 45°35' W 122°46'0 0.0
2018-Aug-05 06:59N 45°35' W 122°46'0 0.0
2018-Aug-05 06:29N 45°35' W 122°46'0 0.0
2018-Aug-05 05:59N 45°35' W 122°46'0 0.0
2018-Aug-05 05:11N 45°35' W 122°46'0 0.0
2018-Aug-05 04:59N 45°35' W 122°46'0 0.0
2018-Aug-05 04:26N 45°35' W 122°46'0 0.0
2018-Aug-05 03:50N 45°35' W 122°46'0 0.0
2018-Aug-05 03:23N 45°35' W 122°46'0 0.0
2018-Aug-05 02:47N 45°35' W 122°46'0 0.0
2018-Aug-05 02:17N 45°35' W 122°46'0 0.0
2018-Aug-05 01:44N 45°35' W 122°46'0 0.0
2018-Aug-05 01:26N 45°35' W 122°46'0 0.0
2018-Aug-05 00:59N 45°35' W 122°46'0 0.0
2018-Aug-04 23:38N 45°35' W 122°46'0 0.0
2018-Aug-04 23:29N 45°35' W 122°46'0 0.0
2018-Aug-04 22:29N 45°35' W 122°46'0 0.0
2018-Aug-04 21:56N 45°35' W 122°46'0 0.0
2018-Aug-04 21:08N 45°35' W 122°46'0 0.0
2018-Aug-04 20:56N 45°35' W 122°46'0 0.0
2018-Aug-04 20:26N 45°35' W 122°46'0 0.0
2018-Aug-04 19:59N 45°35' W 122°46'0 0.0
2018-Aug-04 18:56N 45°35' W 122°46'0 0.0
2018-Aug-04 18:26N 45°35' W 122°46'0 0.0
2018-Aug-04 17:44N 45°35' W 122°46'0 0.0
2018-Aug-04 17:26N 45°35' W 122°46'0 0.0
2018-Aug-04 16:56N 45°35' W 122°46'0 0.0
2018-Aug-04 15:30N 45°35' W 122°46'0 0.7
2018-Aug-04 15:00N 45°35' W 122°46'3 6.4
2018-Aug-04 14:30N 45°38' W 122°47'3 6.7
2018-Aug-04 14:00N 45°41' W 122°47'4 7.2
2018-Aug-04 13:31N 45°45' W 122°46'3 6.8
2018-Aug-04 13:00N 45°48' W 122°48'3 6.6
2018-Aug-04 12:30N 45°51' W 122°47'3 6.5
2018-Aug-04 12:00N 45°55' W 122°49'3 6.5
2018-Aug-04 11:30N 45°58' W 122°49'3 6.7
2018-Aug-04 11:00N 46°01' W 122°51'3 6.4
2018-Aug-04 10:30N 46°04' W 122°53'3 6.3
2018-Aug-04 10:00N 46°06' W 122°56'3 6.7
2018-Aug-04 09:30N 46°08' W 123°00'8 7.7
2018-Aug-04 08:26N 46°11' W 123°11'1 1.8
2018-Aug-04 08:00N 46°10' W 123°12'5 6.4
2018-Aug-04 07:17N 46°09' W 123°18'2 6.6
2018-Aug-04 06:56N 46°09' W 123°22'3 6.6
2018-Aug-04 06:24N 46°11' W 123°26'4 6.6
2018-Aug-04 05:47N 46°15' W 123°26'2 7.0
2018-Aug-04 05:30N 46°16' W 123°28'4 7.2
2018-Aug-04 05:00N 46°15' W 123°34'4 7.2
2018-Aug-04 04:30N 46°16' W 123°39'6 5.6
2018-Aug-04 03:22N 46°13' W 123°47'2 5.1
2018-Aug-04 03:00N 46°12' W 123°49'4 8.0
2018-Aug-04 02:30N 46°12' W 123°55'4 8.2
2018-Aug-04 02:00N 46°14' W 123°59'4 7.8
2018-Aug-04 01:29N 46°15' W 124°05'  
Track history (hours):
 
Tides and Currents Weather Stations Pressure Air Temp Water Temp Dewpoint Dewpoint Depression Visibility Wind Speed Wind Dir Waves Ship Positions

Jake Shearer

Owner: Harley Marine Services, Inc, Seattle, WA. More information available from US FCC via Universal Licensing System and Coast Guard Vessel Documentation Center.

Last reported at 2018-Aug-14 01:19 UTC. Time now 2018-Aug-14 19:28 UTC.
Position N 48°52' W 122°46'.

Length 34 m; draft 4.1 m.

Type: Ship. MMSI: 367740790.

Date/timePositionNaut miles runAvg speedWind from/ knotsBaromVisibWave heightAir tempDewpointWater temp
2018-Aug-14 01:19N 48°52' W 122°46'1 4.0
2018-Aug-14 01:00N 48°51' W 122°47'610.9
2018-Aug-14 00:27N 48°45' W 122°45'511.6
2018-Aug-14 00:00N 48°40' W 122°41'5 9.8
2018-Aug-13 23:29N 48°36' W 122°37'2 3.6
2018-Aug-13 23:00N 48°34' W 122°36'0 0.0
2018-Aug-13 22:30N 48°34' W 122°36'0 0.0
2018-Aug-13 22:00N 48°34' W 122°36'0 0.0
2018-Aug-13 21:30N 48°34' W 122°36'0 0.0
2018-Aug-13 21:00N 48°34' W 122°36'0 0.0
2018-Aug-13 20:27N 48°34' W 122°36'0 0.1
2018-Aug-13 20:00N 48°34' W 122°36'0 0.0
2018-Aug-13 19:21N 48°34' W 122°36'0 0.0
2018-Aug-13 19:00N 48°34' W 122°36'0 0.1
2018-Aug-13 18:30N 48°34' W 122°36'0 0.0
2018-Aug-13 18:00N 48°34' W 122°36'0 0.1
2018-Aug-13 17:15N 48°34' W 122°36'0 0.0
2018-Aug-13 16:51N 48°34' W 122°36'0 0.0
2018-Aug-13 16:24N 48°34' W 122°36'0 0.1
2018-Aug-13 16:00N 48°34' W 122°36'0 0.0
2018-Aug-13 15:09N 48°34' W 122°36'0 0.0
2018-Aug-13 14:51N 48°34' W 122°36'0 0.0
2018-Aug-13 14:30N 48°34' W 122°36'0 0.0
2018-Aug-13 14:00N 48°34' W 122°36'0 0.1
2018-Aug-13 13:30N 48°34' W 122°36'0 0.1
2018-Aug-13 12:57N 48°34' W 122°36'0 0.0
2018-Aug-13 12:24N 48°34' W 122°36'0 0.0
2018-Aug-13 12:00N 48°34' W 122°36'0 0.1
2018-Aug-13 11:30N 48°34' W 122°36'0 0.0
2018-Aug-13 11:00N 48°34' W 122°36'0 0.0
2018-Aug-13 09:30N 48°34' W 122°36'0 0.1
2018-Aug-13 08:54N 48°34' W 122°36'0 0.0
2018-Aug-13 08:30N 48°34' W 122°36'0 0.1
2018-Aug-13 07:54N 48°34' W 122°36'0 0.2
2018-Aug-13 07:27N 48°34' W 122°36'0 0.1
2018-Aug-13 07:00N 48°34' W 122°36'0 0.0
2018-Aug-13 06:27N 48°34' W 122°36'0 0.1
2018-Aug-13 05:36N 48°34' W 122°36'0 0.4
2018-Aug-13 05:30N 48°34' W 122°36'0 0.2
2018-Aug-13 05:00N 48°34' W 122°36'0 0.1
2018-Aug-13 04:30N 48°34' W 122°36'0 0.0
2018-Aug-13 03:54N 48°34' W 122°36'0 0.0
2018-Aug-13 02:21N 48°34' W 122°36'0 0.0
2018-Aug-13 01:54N 48°34' W 122°36'0 0.0
2018-Aug-13 01:15N 48°34' W 122°36'0 0.1
2018-Aug-13 00:57N 48°34' W 122°36'0 0.1
2018-Aug-13 00:21N 48°34' W 122°36'0 0.0
2018-Aug-13 00:00N 48°34' W 122°36'0 0.0
2018-Aug-12 23:27N 48°34' W 122°36'0 0.1
2018-Aug-12 23:00N 48°34' W 122°36'0 0.2
2018-Aug-12 22:30N 48°34' W 122°36'0 0.1
2018-Aug-12 21:51N 48°34' W 122°36'0 0.2
2018-Aug-12 21:15N 48°34' W 122°36'0 0.0
2018-Aug-12 20:57N 48°34' W 122°36'0 0.1
2018-Aug-12 20:21N 48°34' W 122°36'0 0.0
2018-Aug-12 20:00N 48°34' W 122°36'0 0.0
2018-Aug-12 18:57N 48°34' W 122°36'0 0.0
2018-Aug-12 18:27N 48°34' W 122°36'0 0.0
2018-Aug-12 18:00N 48°34' W 122°36'0 0.0
2018-Aug-12 17:27N 48°34' W 122°36'0 0.1
2018-Aug-12 17:00N 48°34' W 122°36'0 0.1
2018-Aug-12 16:27N 48°34' W 122°36'0 0.1
2018-Aug-12 16:00N 48°34' W 122°36'0 0.1
2018-Aug-12 14:48N 48°34' W 122°36'0 0.0
2018-Aug-12 14:24N 48°34' W 122°36'0 0.0
2018-Aug-12 13:12N 48°34' W 122°36'0 0.2
2018-Aug-12 13:00N 48°34' W 122°36'0 0.1
2018-Aug-12 12:30N 48°34' W 122°36'0 0.0
2018-Aug-12 12:00N 48°34' W 122°36'0 0.0
2018-Aug-12 11:30N 48°34' W 122°36'0 0.1
2018-Aug-12 11:00N 48°34' W 122°36'0 0.1
2018-Aug-12 10:30N 48°34' W 122°36'0 0.1
2018-Aug-12 10:00N 48°34' W 122°36'0 0.1
2018-Aug-12 09:20N 48°34' W 122°36'1 2.0
2018-Aug-12 08:45N 48°35' W 122°37'2 7.4
2018-Aug-12 08:30N 48°35' W 122°40'4 8.0
2018-Aug-12 07:58N 48°31' W 122°42'4 7.9
2018-Aug-12 07:28N 48°28' W 122°44'4 7.8
2018-Aug-12 07:00N 48°25' W 122°47'4 8.0
2018-Aug-12 06:30N 48°22' W 122°52'5 8.8
2018-Aug-12 05:59N 48°20' W 122°58'39 8.2
2018-Aug-12 01:16N 48°12' W 123°55'5 9.6
2018-Aug-12 00:47N 48°14' W 124°01'3 9.9
2018-Aug-12 00:30N 48°15' W 124°05'5 9.8
2018-Aug-12 00:00N 48°18' W 124°12'5 9.8
2018-Aug-11 23:30N 48°20' W 124°19'4 8.9
2018-Aug-11 23:00N 48°21' W 124°25'4 8.1
2018-Aug-11 22:30N 48°23' W 124°30'4 8.1
2018-Aug-11 22:00N 48°25' W 124°36'4 7.8
2018-Aug-11 21:30N 48°26' W 124°41'4 7.8
2018-Aug-11 20:59N 48°28' W 124°47'4 8.0
2018-Aug-11 20:30N 48°28' W 124°53'4 8.2
2018-Aug-11 20:00N 48°25' W 124°57'4 8.1
2018-Aug-11 19:29N 48°21' W 124°60'75 7.8
2018-Aug-11 09:58N 47°06' W 124°58'4 8.4
2018-Aug-11 09:30N 47°03' W 124°56'4 8.4
2018-Aug-11 09:00N 46°59' W 124°54'4 8.5
2018-Aug-11 08:30N 46°55' W 124°52'4 8.8
2018-Aug-11 08:00N 46°51' W 124°49'4 9.0
2018-Aug-11 07:30N 46°46' W 124°47'5 9.1
2018-Aug-11 06:59N 46°42' W 124°45'4 8.8
2018-Aug-11 06:30N 46°38' W 124°44'4 8.6
2018-Aug-11 05:59N 46°34' W 124°40'4 8.6
2018-Aug-11 05:30N 46°30' W 124°37'4 8.8
2018-Aug-11 05:00N 46°27' W 124°34'4 8.9
2018-Aug-11 04:31N 46°23' W 124°30'5 8.9
2018-Aug-11 04:00N 46°20' W 124°26'5 9.3
2018-Aug-11 03:30N 46°16' W 124°21'5 9.7
2018-Aug-11 03:00N 46°13' W 124°16'4 8.7
2018-Aug-11 02:30N 46°13' W 124°09'6 9.3
2018-Aug-11 01:55N 46°15' W 124°02'410.6
2018-Aug-11 01:30N 46°13' W 123°57'510.2
2018-Aug-11 00:59N 46°12' W 123°50'5 9.8
2018-Aug-11 00:30N 46°14' W 123°44'5 9.2
2018-Aug-11 00:00N 46°16' W 123°38'8 8.4
2018-Aug-10 23:03N 46°14' W 123°26'0 9.3
2018-Aug-10 23:00N 46°14' W 123°26'7 7.3
2018-Aug-10 22:02N 46°09' W 123°20'0 9.0
2018-Aug-10 22:01N 46°09' W 123°19'4 8.3
2018-Aug-10 21:30N 46°10' W 123°14'4 8.1
2018-Aug-10 21:00N 46°11' W 123°08'4 8.3
2018-Aug-10 20:30N 46°09' W 123°03'4 8.6
2018-Aug-10 20:00N 46°06' W 122°58'5 8.4
2018-Aug-10 19:25N 46°03' W 122°53'6 8.9
2018-Aug-10 18:43N 45°58' W 122°49'2 9.2
2018-Aug-10 18:30N 45°56' W 122°48'6 9.5
2018-Aug-10 17:51N 45°49' W 122°48'4 9.8
2018-Aug-10 17:29N 45°46' W 122°46'510.2
2018-Aug-10 16:57N 45°41' W 122°46'3 7.2
2018-Aug-10 16:30N 45°38' W 122°47'2 4.0
2018-Aug-10 16:00N 45°36' W 122°47'0 0.0
2018-Aug-10 15:30N 45°36' W 122°47'0 0.0
2018-Aug-10 14:51N 45°36' W 122°47'0 0.0
2018-Aug-10 14:30N 45°36' W 122°47'0 0.0
2018-Aug-10 14:00N 45°36' W 122°47'0 0.0
2018-Aug-10 13:15N 45°36' W 122°47'0 0.0
2018-Aug-10 12:57N 45°36' W 122°47'0 0.0
2018-Aug-10 12:18N 45°36' W 122°47'0 0.0
2018-Aug-10 11:57N 45°36' W 122°47'0 0.0
2018-Aug-10 11:27N 45°36' W 122°47'0 0.0
2018-Aug-10 11:00N 45°36' W 122°47'0 0.0
2018-Aug-10 10:30N 45°36' W 122°47'0 0.0
2018-Aug-10 09:57N 45°36' W 122°47'0 0.0
2018-Aug-10 09:06N 45°36' W 122°47'0 0.0
2018-Aug-10 09:00N 45°36' W 122°47'0 0.0
2018-Aug-10 08:30N 45°36' W 122°47'0 0.0
2018-Aug-10 08:00N 45°36' W 122°47'0 0.0
2018-Aug-10 07:06N 45°36' W 122°47'0 0.0
2018-Aug-10 06:54N 45°36' W 122°47'0 0.0
2018-Aug-10 06:27N 45°36' W 122°47'0 0.0
2018-Aug-10 05:54N 45°36' W 122°47'0 0.0
2018-Aug-10 05:09N 45°36' W 122°47'0 0.0
2018-Aug-10 05:00N 45°36' W 122°47'0 0.0
2018-Aug-10 04:30N 45°36' W 122°47'0 0.0
2018-Aug-10 03:51N 45°36' W 122°47'0 0.0
2018-Aug-10 03:24N 45°36' W 122°47'0 0.0
2018-Aug-10 02:48N 45°36' W 122°47'0 0.0
2018-Aug-10 02:30N 45°36' W 122°47'0 0.0
2018-Aug-10 02:00N 45°36' W 122°47'0 0.0
2018-Aug-10 01:30N 45°36' W 122°47'0 0.0
2018-Aug-10 00:54N 45°36' W 122°47'0 0.0
2018-Aug-10 00:30N 45°36' W 122°47'0 0.0
2018-Aug-09 23:51N 45°36' W 122°47'0 0.0
2018-Aug-09 23:30N 45°36' W 122°47'0 0.0
2018-Aug-09 22:57N 45°36' W 122°47'0 0.0
2018-Aug-09 22:30N 45°36' W 122°47'0 0.0
2018-Aug-09 21:54N 45°36' W 122°47'0 0.0
2018-Aug-09 21:21N 45°36' W 122°47'0 0.0
2018-Aug-09 20:57N 45°36' W 122°47'0 0.0
2018-Aug-09 20:15N 45°36' W 122°47'0 0.0
2018-Aug-09 19:57N 45°36' W 122°47'0 0.6
2018-Aug-09 19:30N 45°35' W 122°46'1 1.7
2018-Aug-09 19:00N 45°35' W 122°46'0 0.0
2018-Aug-09 18:30N 45°35' W 122°46'0 0.0
2018-Aug-09 17:48N 45°35' W 122°46'0 0.0
2018-Aug-09 17:09N 45°35' W 122°46'0 0.0
2018-Aug-09 16:51N 45°35' W 122°46'0 0.0
2018-Aug-09 16:30N 45°35' W 122°46'0 0.0
2018-Aug-09 16:00N 45°35' W 122°46'0 0.0
2018-Aug-09 15:21N 45°35' W 122°46'0 0.0
2018-Aug-09 14:42N 45°35' W 122°46'0 0.0
2018-Aug-09 14:06N 45°35' W 122°46'0 0.0
2018-Aug-09 13:42N 45°35' W 122°46'0 0.0
2018-Aug-09 13:27N 45°35' W 122°46'0 0.0
2018-Aug-09 13:00N 45°35' W 122°46'0 0.0
2018-Aug-09 12:24N 45°35' W 122°46'0 0.0
2018-Aug-09 12:00N 45°35' W 122°46'0 0.0
2018-Aug-09 11:24N 45°35' W 122°46'0 0.0
2018-Aug-09 10:54N 45°35' W 122°46'0 0.0
2018-Aug-09 10:27N 45°35' W 122°46'0 0.0
2018-Aug-09 09:48N 45°35' W 122°46'0 0.0
2018-Aug-09 09:30N 45°35' W 122°46'0 0.0
2018-Aug-09 09:00N 45°35' W 122°46'0 0.0
2018-Aug-09 08:24N 45°35' W 122°46'0 0.0
2018-Aug-09 07:57N 45°35' W 122°46'0 0.0
2018-Aug-09 07:27N 45°35' W 122°46'0 0.0
2018-Aug-09 06:57N 45°35' W 122°46'0 0.0
2018-Aug-09 06:30N 45°35' W 122°46'0 0.0
2018-Aug-09 04:24N 45°35' W 122°46'0 0.0
2018-Aug-09 04:00N 45°35' W 122°46'0 0.0
2018-Aug-09 03:30N 45°35' W 122°46'0 0.0
2018-Aug-09 03:00N 45°35' W 122°46'0 0.0
2018-Aug-09 02:15N 45°35' W 122°46'0 0.0
2018-Aug-09 01:45N 45°35' W 122°46'0 0.0
2018-Aug-09 01:30N 45°35' W 122°46'0 0.0
2018-Aug-09 00:51N 45°35' W 122°46'0 0.0
2018-Aug-09 00:27N 45°35' W 122°46'0 0.0
2018-Aug-09 00:00N 45°35' W 122°46'0 0.0
2018-Aug-08 22:42N 45°35' W 122°46'0 0.0
2018-Aug-08 22:24N 45°35' W 122°46'0 0.0
2018-Aug-08 21:54N 45°35' W 122°46'0 0.0
2018-Aug-08 21:30N 45°35' W 122°46'0 0.0
2018-Aug-08 20:57N 45°35' W 122°46'0 0.0
2018-Aug-08 20:18N 45°35' W 122°46'0 0.0
2018-Aug-08 19:57N 45°35' W 122°46'0 0.0
2018-Aug-08 19:00N 45°35' W 122°46'0 0.0
2018-Aug-08 18:03N 45°35' W 122°46'0 0.0
2018-Aug-08 17:54N 45°35' W 122°46'0 0.0
2018-Aug-08 17:24N 45°35' W 122°46'0 0.0
2018-Aug-08 15:54N 45°35' W 122°46'0 0.0
2018-Aug-08 15:30N 45°35' W 122°46'0 0.0
2018-Aug-08 15:00N 45°35' W 122°46'0 0.0
2018-Aug-08 14:06N 45°35' W 122°46'0 0.0
2018-Aug-08 13:57N 45°35' W 122°46'0 0.0
2018-Aug-08 13:09N 45°35' W 122°46'0 0.0
2018-Aug-08 12:48N 45°35' W 122°46'0 0.0
2018-Aug-08 12:18N 45°35' W 122°46'0 0.0
2018-Aug-08 11:45N 45°35' W 122°46'0 0.0
2018-Aug-08 11:30N 45°35' W 122°46'0 0.0
2018-Aug-08 10:57N 45°35' W 122°46'0 0.0
2018-Aug-08 10:15N 45°35' W 122°46'0 0.0
2018-Aug-08 10:00N 45°35' W 122°46'0 0.0
2018-Aug-08 09:24N 45°35' W 122°46'0 0.0
2018-Aug-08 08:57N 45°35' W 122°46'0 0.0
2018-Aug-08 08:24N 45°35' W 122°46'0 0.0
2018-Aug-08 08:00N 45°35' W 122°46'0 0.0
2018-Aug-08 07:27N 45°35' W 122°46'0 0.0
2018-Aug-08 06:57N 45°35' W 122°46'0 0.0
2018-Aug-08 06:27N 45°35' W 122°46'0 0.0
2018-Aug-08 05:18N 45°35' W 122°46'0 0.0
2018-Aug-08 04:57N 45°35' W 122°46'0 0.0
2018-Aug-08 04:30N 45°35' W 122°46'0 0.0
2018-Aug-08 03:48N 45°35' W 122°46'0 0.0
2018-Aug-08 03:24N 45°35' W 122°46'0 0.0
2018-Aug-08 03:00N 45°35' W 122°46'0 0.0
2018-Aug-08 01:51N 45°35' W 122°46'0 0.0
2018-Aug-08 01:09N 45°35' W 122°46'0 0.0
2018-Aug-08 00:57N 45°35' W 122°46'0 0.0
2018-Aug-08 00:21N 45°35' W 122°46'0 0.0
2018-Aug-07 23:39N 45°35' W 122°46'0 0.0
2018-Aug-07 23:24N 45°35' W 122°46'0 0.0
2018-Aug-07 22:36N 45°35' W 122°46'0 0.0
2018-Aug-07 22:24N 45°35' W 122°46'0 0.0
2018-Aug-07 21:54N 45°35' W 122°46'0 0.0
2018-Aug-07 21:27N 45°35' W 122°46'0 0.0
2018-Aug-07 20:39N 45°35' W 122°46'0 0.0
2018-Aug-07 20:15N 45°35' W 122°46'0 0.0
2018-Aug-07 19:48N 45°35' W 122°46'0 0.0
2018-Aug-07 19:30N 45°35' W 122°46'0 0.0
2018-Aug-07 19:00N 45°35' W 122°46'0 0.0
2018-Aug-07 17:44N 45°35' W 122°46'0 0.0
2018-Aug-07 17:30N 45°35' W 122°46'0 0.0
2018-Aug-07 16:48N 45°35' W 122°46'0 0.0
2018-Aug-07 16:30N 45°35' W 122°46'0 0.0
2018-Aug-07 15:39N 45°35' W 122°46'0 0.0
2018-Aug-07 14:30N 45°35' W 122°46'0 0.0
2018-Aug-07 13:36N 45°35' W 122°46'0 0.0
2018-Aug-07 13:23N 45°35' W 122°46'0 0.0
2018-Aug-07 12:57N 45°35' W 122°46'0 0.0
2018-Aug-07 12:18N 45°35' W 122°46'0 0.0
2018-Aug-07 11:54N 45°35' W 122°46'0 0.0
2018-Aug-07 11:24N 45°35' W 122°46'0 0.0
2018-Aug-07 10:51N 45°35' W 122°46'0 0.0
2018-Aug-07 10:29N 45°35' W 122°46'0 0.0
2018-Aug-07 10:00N 45°35' W 122°46'0 0.0
2018-Aug-07 09:24N 45°35' W 122°46'0 0.0
2018-Aug-07 08:59N 45°35' W 122°46'0 0.0
2018-Aug-07 08:27N 45°35' W 122°46'0 0.0
2018-Aug-07 08:00N 45°35' W 122°46'0 0.0
2018-Aug-07 07:24N 45°35' W 122°46'0 0.0
2018-Aug-07 06:57N 45°35' W 122°46'0 0.0
2018-Aug-07 06:30N 45°35' W 122°46'0 0.0
2018-Aug-07 06:00N 45°35' W 122°46'0 0.0
2018-Aug-07 05:30N 45°35' W 122°46'0 0.0
2018-Aug-07 04:36N 45°35' W 122°46'0 0.0
2018-Aug-07 04:30N 45°35' W 122°46'0 0.0
2018-Aug-07 03:59N 45°35' W 122°46'0 0.0
2018-Aug-07 03:23N 45°35' W 122°46'0 0.0
2018-Aug-07 02:48N 45°35' W 122°46'0 0.0
2018-Aug-07 02:30N 45°35' W 122°46'0 0.0
2018-Aug-07 02:00N 45°35' W 122°46'0 0.0
2018-Aug-07 01:24N 45°35' W 122°46'0 0.0
2018-Aug-07 00:48N 45°35' W 122°46'0 0.0
2018-Aug-07 00:30N 45°35' W 122°46'0 0.0
2018-Aug-06 23:59N 45°35' W 122°46'0 0.0
2018-Aug-06 23:02N 45°35' W 122°46'0 0.0
2018-Aug-06 21:59N 45°35' W 122°46'0 0.0
2018-Aug-06 21:26N 45°35' W 122°46'0 0.0
2018-Aug-06 20:38N 45°35' W 122°46'0 0.0
2018-Aug-06 20:26N 45°35' W 122°46'0 0.0
2018-Aug-06 19:59N 45°35' W 122°46'0 0.0
2018-Aug-06 18:56N 45°35' W 122°46'0 0.0
2018-Aug-06 18:30N 45°35' W 122°46'0 0.0
2018-Aug-06 18:00N 45°35' W 122°46'0 0.0
2018-Aug-06 17:29N 45°35' W 122°46'0 0.0
2018-Aug-06 16:17N 45°35' W 122°46'0 0.0
2018-Aug-06 15:48N 45°35' W 122°46'0 0.0
2018-Aug-06 14:50N 45°35' W 122°46'0 0.0
2018-Aug-06 14:23N 45°35' W 122°46'0 0.0
2018-Aug-06 13:54N 45°35' W 122°46'0 0.0
2018-Aug-06 13:29N 45°35' W 122°46'0 0.0
2018-Aug-06 12:59N 45°35' W 122°46'0 0.0
2018-Aug-06 12:29N 45°35' W 122°46'0 0.0
2018-Aug-06 11:56N 45°35' W 122°46'0 0.0
2018-Aug-06 11:23N 45°35' W 122°46'0 0.0
2018-Aug-06 10:59N 45°35' W 122°46'0 0.0
2018-Aug-06 10:20N 45°35' W 122°46'0 0.0
2018-Aug-06 09:50N 45°35' W 122°46'0 0.0
2018-Aug-06 09:29N 45°35' W 122°46'0 0.0
2018-Aug-06 08:48N 45°35' W 122°46'0 0.0
2018-Aug-06 08:29N 45°35' W 122°46'0 0.0
2018-Aug-06 07:59N 45°35' W 122°46'0 0.0
2018-Aug-06 07:23N 45°35' W 122°46'0 0.0
2018-Aug-06 06:59N 45°35' W 122°46'0 0.0
2018-Aug-06 06:26N 45°35' W 122°46'0 0.0
2018-Aug-06 05:41N 45°35' W 122°46'0 0.0
2018-Aug-06 05:14N 45°35' W 122°46'0 0.0
2018-Aug-06 04:29N 45°35' W 122°46'0 0.0
2018-Aug-06 03:56N 45°35' W 122°46'0 0.0
2018-Aug-06 03:08N 45°35' W 122°46'0 0.0
2018-Aug-06 02:59N 45°35' W 122°46'0 0.0
2018-Aug-06 02:08N 45°35' W 122°46'0 0.0
2018-Aug-06 01:11N 45°35' W 122°46'0 0.0
2018-Aug-06 00:26N 45°35' W 122°46'0 0.0
2018-Aug-05 23:32N 45°35' W 122°46'0 0.0
2018-Aug-05 22:47N 45°35' W 122°46'0 0.0
2018-Aug-05 22:29N 45°35' W 122°46'0 0.0
2018-Aug-05 21:47N 45°35' W 122°46'0 0.0
2018-Aug-05 21:11N 45°35' W 122°46'0 0.0
2018-Aug-05 20:59N 45°35' W 122°46'0 0.0
2018-Aug-05 20:17N 45°35' W 122°46'0 0.0
2018-Aug-05 19:53N 45°35' W 122°46'0 0.0
2018-Aug-05 19:26N 45°35' W 122°46'0 0.0
2018-Aug-05 18:59N 45°35' W 122°46'0 0.0
2018-Aug-05 18:29N 45°35' W 122°46'0 0.0
2018-Aug-05 17:56N 45°35' W 122°46'0 0.0
2018-Aug-05 17:20N 45°35' W 122°46'0 0.0
2018-Aug-05 16:17N 45°35' W 122°46'0 0.0
2018-Aug-05 15:56N 45°35' W 122°46'0 0.0
2018-Aug-05 15:17N 45°35' W 122°46'0 0.0
2018-Aug-05 14:53N 45°35' W 122°46'0 0.0
2018-Aug-05 14:17N 45°35' W 122°46'0 0.0
2018-Aug-05 13:20N 45°35' W 122°46'0 0.0
2018-Aug-05 12:53N 45°35' W 122°46'0 0.0
2018-Aug-05 12:23N 45°35' W 122°46'0 0.0
2018-Aug-05 11:59N 45°35' W 122°46'0 0.0
2018-Aug-05 11:17N 45°35' W 122°46'0 0.0
2018-Aug-05 10:56N 45°35' W 122°46'0 0.0
2018-Aug-05 10:29N 45°35' W 122°46'0 0.0
2018-Aug-05 09:11N 45°35' W 122°46'0 0.0
2018-Aug-05 08:59N 45°35' W 122°46'0 0.0
2018-Aug-05 06:59N 45°35' W 122°46'0 0.0
2018-Aug-05 06:29N 45°35' W 122°46'0 0.0
2018-Aug-05 05:59N 45°35' W 122°46'0 0.0
2018-Aug-05 05:11N 45°35' W 122°46'0 0.0
2018-Aug-05 04:59N 45°35' W 122°46'0 0.0
2018-Aug-05 04:26N 45°35' W 122°46'0 0.0
2018-Aug-05 03:50N 45°35' W 122°46'0 0.0
2018-Aug-05 03:23N 45°35' W 122°46'0 0.0
2018-Aug-05 02:47N 45°35' W 122°46'0 0.0
2018-Aug-05 02:17N 45°35' W 122°46'0 0.0
2018-Aug-05 01:44N 45°35' W 122°46'0 0.0
2018-Aug-05 01:26N 45°35' W 122°46'0 0.0
2018-Aug-05 00:59N 45°35' W 122°46'0 0.0
2018-Aug-04 23:38N 45°35' W 122°46'0 0.0
2018-Aug-04 23:29N 45°35' W 122°46'0 0.0
2018-Aug-04 22:29N 45°35' W 122°46'0 0.0
2018-Aug-04 21:56N 45°35' W 122°46'0 0.0
2018-Aug-04 21:08N 45°35' W 122°46'0 0.0
2018-Aug-04 20:56N 45°35' W 122°46'0 0.0
2018-Aug-04 20:26N 45°35' W 122°46'0 0.0
2018-Aug-04 19:59N 45°35' W 122°46'0 0.0
2018-Aug-04 18:56N 45°35' W 122°46'0 0.0
2018-Aug-04 18:26N 45°35' W 122°46'0 0.0
2018-Aug-04 17:44N 45°35' W 122°46'0 0.0
2018-Aug-04 17:26N 45°35' W 122°46'0 0.0
2018-Aug-04 16:56N 45°35' W 122°46'0 0.0
2018-Aug-04 15:30N 45°35' W 122°46'0 0.7
2018-Aug-04 15:00N 45°35' W 122°46'3 6.4
2018-Aug-04 14:30N 45°38' W 122°47'3 6.7
2018-Aug-04 14:00N 45°41' W 122°47'4 7.2
2018-Aug-04 13:31N 45°45' W 122°46'3 6.8
2018-Aug-04 13:00N 45°48' W 122°48'3 6.6
2018-Aug-04 12:30N 45°51' W 122°47'3 6.5
2018-Aug-04 12:00N 45°55' W 122°49'3 6.5
2018-Aug-04 11:30N 45°58' W 122°49'3 6.7
2018-Aug-04 11:00N 46°01' W 122°51'3 6.4
2018-Aug-04 10:30N 46°04' W 122°53'3 6.3
2018-Aug-04 10:00N 46°06' W 122°56'3 6.7
2018-Aug-04 09:30N 46°08' W 123°00'8 7.7
2018-Aug-04 08:26N 46°11' W 123°11'1 1.8
2018-Aug-04 08:00N 46°10' W 123°12'5 6.4
2018-Aug-04 07:17N 46°09' W 123°18'2 6.6
2018-Aug-04 06:56N 46°09' W 123°22'3 6.6
2018-Aug-04 06:24N 46°11' W 123°26'4 6.6
2018-Aug-04 05:47N 46°15' W 123°26'2 7.0
2018-Aug-04 05:30N 46°16' W 123°28'4 7.2
2018-Aug-04 05:00N 46°15' W 123°34'4 7.2
2018-Aug-04 04:30N 46°16' W 123°39'6 5.6
2018-Aug-04 03:22N 46°13' W 123°47'2 5.1
2018-Aug-04 03:00N 46°12' W 123°49'4 8.0
2018-Aug-04 02:30N 46°12' W 123°55'4 8.2
2018-Aug-04 02:00N 46°14' W 123°59'4 7.8
2018-Aug-04 01:29N 46°15' W 124°05'  

Dump ship's entire track history